createdAt,value
2023-03-31T00:03:29.314Z,82.59
2023-03-31T00:08:36.143Z,82.68
2023-03-31T00:13:40.786Z,82.54
2023-03-31T00:18:47.955Z,82.38
2023-03-31T00:24:01.221Z,82.55
2023-03-31T00:29:09.200Z,82.61
2023-03-31T00:34:13.429Z,82.91
2023-03-31T00:39:19.490Z,83.07
2023-03-31T00:44:29.643Z,83.53
2023-03-31T00:49:38.718Z,83.72
2023-03-31T00:54:45.189Z,84.04
2023-03-31T00:59:54.190Z,84.13
2023-03-31T01:05:02.666Z,84.12
2023-03-31T01:10:09.280Z,84.45
2023-03-31T01:15:16.528Z,84.63
2023-03-31T01:21:04.164Z,84.42
2023-03-31T01:26:57.867Z,84.31
2023-03-31T01:32:39.780Z,84.75
2023-03-31T01:38:25.251Z,84.45
2023-03-31T01:43:37.548Z,85.38
2023-03-31T02:15:58.347Z,85.40
2023-03-31T02:21:02.128Z,85.35
2023-03-31T02:26:10.923Z,85.22
2023-03-31T02:31:45.020Z,85.63
2023-03-31T02:36:49.253Z,85.36
2023-03-31T02:41:52.940Z,85.78
2023-03-31T02:46:57.087Z,85.32
2023-03-31T02:52:13.037Z,85.64
2023-03-31T02:58:08.180Z,85.71
2023-03-31T03:03:31.753Z,84.90
2023-03-31T03:09:23.334Z,85.60
2023-03-31T03:14:38.830Z,85.87
2023-03-31T03:19:43.939Z,86.09
2023-03-31T03:24:47.808Z,86.23
2023-03-31T03:29:52.261Z,86.30
2023-03-31T03:34:56.314Z,86.81
2023-03-31T03:40:00.066Z,86.89
2023-03-31T03:45:05.438Z,86.98
2023-03-31T03:50:10.945Z,87.20
2023-03-31T03:55:14.864Z,87.36
2023-03-31T04:00:19.106Z,87.45
2023-03-31T04:05:23.185Z,87.33
2023-03-31T04:10:27.244Z,87.42
2023-03-31T04:15:31.660Z,87.65
2023-03-31T04:20:38.139Z,87.76
2023-03-31T04:25:46.632Z,87.92
2023-03-31T04:30:50.421Z,88.12
2023-03-31T04:35:55.237Z,88.44
2023-03-31T04:40:58.973Z,88.65
2023-03-31T04:46:02.860Z,88.80
2023-03-31T04:51:07.485Z,88.04
2023-03-31T04:56:11.644Z,88.43
2023-03-31T05:01:18.620Z,89.05
2023-03-31T05:06:22.490Z,88.99
2023-03-31T05:11:26.934Z,88.97
2023-03-31T05:16:31.732Z,89.11
2023-03-31T05:21:36.509Z,88.84
2023-03-31T05:26:41.510Z,89.29
2023-03-31T05:31:46.143Z,89.47
2023-03-31T05:36:51.649Z,89.59
2023-03-31T05:41:55.338Z,89.90
2023-03-31T05:46:59.094Z,90.22
2023-03-31T05:52:03.467Z,90.31
2023-03-31T05:57:09.342Z,89.66
2023-03-31T06:02:14.691Z,88.77
2023-03-31T06:07:19.648Z,87.49
2023-03-31T06:12:23.617Z,86.88
2023-03-31T06:17:29.451Z,86.19
2023-03-31T06:22:33.716Z,85.19
2023-03-31T06:27:37.415Z,84.73
2023-03-31T06:32:43.164Z,83.69
2023-03-31T06:37:47.144Z,82.96
2023-03-31T06:42:52.646Z,81.98
2023-03-31T06:47:57.372Z,81.33
2023-03-31T06:53:01.871Z,80.90
2023-03-31T06:58:06.288Z,80.37
2023-03-31T07:03:10.062Z,79.95
2023-03-31T07:08:13.921Z,79.26
2023-03-31T07:13:18.335Z,77.91
2023-03-31T07:18:26.517Z,76.16
2023-03-31T07:23:30.402Z,76.40
2023-03-31T07:28:34.224Z,75.50
2023-03-31T07:33:37.936Z,73.68
2023-03-31T07:38:43.949Z,72.72
2023-03-31T07:43:48.439Z,70.52
2023-03-31T07:48:53.566Z,70.14
2023-03-31T07:53:57.556Z,70.30
2023-03-31T07:59:01.245Z,69.87
2023-03-31T08:04:05.349Z,70.08
2023-03-31T08:09:09.110Z,70.65
2023-03-31T08:14:12.848Z,69.74
2023-03-31T08:19:16.905Z,69.17
2023-03-31T08:24:20.908Z,68.22
2023-03-31T08:29:24.593Z,68.88
2023-03-31T08:34:28.765Z,67.71
2023-03-31T08:39:32.897Z,67.96
2023-03-31T08:44:47.448Z,65.56
2023-03-31T08:49:59.185Z,65.19
2023-03-31T08:55:08.069Z,64.38
2023-03-31T09:00:19.462Z,65.22
2023-03-31T09:05:59.292Z,64.01
2023-03-31T09:11:23.378Z,62.53
2023-03-31T09:16:36.942Z,62.92
2023-03-31T09:21:45.809Z,59.89
2023-03-31T09:26:55.299Z,60.81
2023-03-31T09:32:21.089Z,61.08
2023-03-31T09:37:28.829Z,60.20
2023-03-31T09:42:32.629Z,58.70
2023-03-31T09:47:40.642Z,59.31
2023-03-31T09:52:49.360Z,58.60
2023-03-31T09:57:54.182Z,57.71
2023-03-31T10:03:04.438Z,59.07
2023-03-31T10:08:11.198Z,59.53
2023-03-31T10:13:18.349Z,59.08
2023-03-31T10:18:24.129Z,59.58
2023-03-31T10:23:30.661Z,60.15
2023-03-31T10:28:35.954Z,60.31
2023-03-31T10:33:47.042Z,60.89
2023-03-31T10:38:52.332Z,59.81
2023-03-31T10:44:00.835Z,59.98
2023-03-31T10:49:15.810Z,59.90
2023-03-31T10:54:20.458Z,60.22
2023-03-31T10:59:52.203Z,59.07
2023-03-31T11:05:16.410Z,58.79
2023-03-31T11:10:33.122Z,58.92
2023-03-31T11:16:08.168Z,59.32
2023-03-31T11:21:44.403Z,58.52
2023-03-31T11:27:25.994Z,58.26
2023-03-31T11:32:43.157Z,56.33
2023-03-31T11:38:01.938Z,54.67
2023-03-31T11:43:42.773Z,54.73
2023-03-31T11:48:57.650Z,55.52
2023-03-31T11:54:05.121Z,55.58
2023-03-31T11:59:13.915Z,54.73
2023-03-31T12:04:30.698Z,55.57
2023-03-31T12:10:05.717Z,55.85
2023-03-31T12:15:15.100Z,55.94
2023-03-31T12:20:42.761Z,55.58
2023-03-31T12:25:52.561Z,55.71
2023-03-31T12:30:57.424Z,56.11
2023-03-31T12:36:16.645Z,56.55
2023-03-31T12:41:56.923Z,56.91
2023-03-31T12:47:24.764Z,56.34
2023-03-31T12:52:41.387Z,57.52
2023-03-31T12:57:45.137Z,59.24
2023-03-31T13:02:50.262Z,60.42
2023-03-31T13:07:54.326Z,61.03
2023-03-31T13:13:02.781Z,60.79
2023-03-31T13:18:07.877Z,60.41
2023-03-31T13:23:23.569Z,60.42
2023-03-31T13:28:47.442Z,61.25
2023-03-31T13:34:02.552Z,62.27
2023-03-31T13:39:12.807Z,65.13
2023-03-31T13:44:29.861Z,67.23
2023-03-31T13:49:45.014Z,68.59
2023-03-31T13:55:03.853Z,73.81
2023-03-31T14:00:47.194Z,71.28
2023-03-31T14:06:01.830Z,74.60
2023-03-31T14:11:19.004Z,75.11
2023-03-31T14:16:22.796Z,75.48
2023-03-31T14:21:34.365Z,76.24
2023-03-31T14:26:47.801Z,78.36
2023-03-31T14:32:06.697Z,77.49
2023-03-31T14:37:14.749Z,76.39
2023-03-31T14:42:20.633Z,77.42
2023-03-31T14:47:29.011Z,78.48
2023-03-31T14:52:33.861Z,78.29
2023-03-31T14:57:40.032Z,80.39
2023-03-31T15:02:45.997Z,79.77
2023-03-31T15:07:50.185Z,78.82
2023-03-31T15:12:54.027Z,81.28
2023-03-31T15:17:57.954Z,82.45
2023-03-31T15:23:07.064Z,82.28
2023-03-31T15:28:12.889Z,80.87
2023-03-31T15:33:24.223Z,80.53
2023-03-31T15:38:28.924Z,80.50
2023-03-31T15:43:48.821Z,80.89
2023-03-31T15:48:56.333Z,81.35
2023-03-31T15:54:00.128Z,81.33
2023-03-31T15:59:07.965Z,82.61
2023-03-31T16:04:13.781Z,81.78
2023-03-31T16:09:24.837Z,81.02
2023-03-31T16:14:31.740Z,80.68
2023-03-31T16:19:59.204Z,80.71
2023-03-31T16:25:03.799Z,80.87
2023-03-31T16:30:17.034Z,80.72
2023-03-31T16:35:21.303Z,80.65
2023-03-31T16:40:25.227Z,80.69
2023-03-31T16:45:29.095Z,80.65
2023-03-31T16:50:33.586Z,80.78
2023-03-31T16:55:38.069Z,80.80
2023-03-31T17:00:43.119Z,81.08
2023-03-31T17:05:49.168Z,80.97
2023-03-31T17:10:56.298Z,80.87
2023-03-31T17:16:13.078Z,81.03
2023-03-31T17:21:25.488Z,81.06
2023-03-31T17:26:29.703Z,81.01
2023-03-31T17:31:34.056Z,80.89
2023-03-31T17:36:39.311Z,80.99
2023-03-31T17:41:45.968Z,81.21
2023-03-31T17:46:51.300Z,81.10
2023-03-31T17:51:57.764Z,81.72
2023-03-31T17:57:02.875Z,82.04
2023-03-31T18:02:07.612Z,82.49
2023-03-31T18:07:13.472Z,83.10
2023-03-31T18:12:18.243Z,83.35
2023-03-31T18:17:26.103Z,83.33
2023-03-31T18:22:34.050Z,83.20
2023-03-31T18:27:39.613Z,84.11
2023-03-31T18:32:44.816Z,84.11
2023-03-31T18:37:49.533Z,84.57
2023-03-31T18:42:55.784Z,83.08
2023-03-31T18:48:01.197Z,83.16
2023-03-31T18:53:07.928Z,82.79
2023-03-31T18:58:14.513Z,82.24
2023-03-31T19:03:20.147Z,81.53
2023-03-31T19:08:28.407Z,81.15
2023-03-31T19:13:35.598Z,81.03
2023-03-31T19:18:43.096Z,81.16
2023-03-31T19:23:48.613Z,81.41
2023-03-31T19:28:57.451Z,81.56
2023-03-31T19:34:12.235Z,81.92
2023-03-31T19:39:19.045Z,82.13
2023-03-31T19:44:27.382Z,82.16
2023-03-31T19:49:32.946Z,82.28
2023-03-31T19:54:40.792Z,82.53
2023-03-31T19:59:47.767Z,82.56
2023-03-31T20:04:55.752Z,82.80
2023-03-31T20:10:02.468Z,82.91
2023-03-31T20:15:08.660Z,82.96
2023-03-31T20:20:13.925Z,83.16
2023-03-31T20:25:18.847Z,83.34
2023-03-31T20:30:24.416Z,83.62
2023-03-31T20:35:29.708Z,83.61
2023-03-31T20:40:37.218Z,84.06
2023-03-31T20:45:42.618Z,84.33
2023-03-31T20:50:47.743Z,85.21
2023-03-31T20:55:52.915Z,85.98
2023-03-31T21:00:59.325Z,86.11
2023-03-31T21:06:11.426Z,86.28
2023-03-31T21:11:16.069Z,86.83
2023-03-31T21:16:21.842Z,87.15
2023-03-31T21:21:27.151Z,87.21
2023-03-31T21:26:31.703Z,87.38
2023-03-31T21:31:36.542Z,87.52
2023-03-31T21:36:40.611Z,87.40
2023-03-31T21:41:44.433Z,87.35
2023-03-31T21:46:48.453Z,87.21
2023-03-31T21:51:52.888Z,87.16
2023-03-31T21:56:56.660Z,87.31
2023-03-31T22:02:00.451Z,87.22
2023-03-31T22:07:05.146Z,87.17
2023-03-31T22:12:09.337Z,87.03
2023-03-31T22:17:13.150Z,87.00
2023-03-31T22:22:17.203Z,87.12
2023-03-31T22:27:21.232Z,87.03
2023-03-31T22:32:25.324Z,87.33
2023-03-31T22:37:29.491Z,87.23
2023-03-31T22:42:33.226Z,87.01
2023-03-31T22:47:36.947Z,86.87
2023-03-31T22:52:40.774Z,86.80
2023-03-31T22:57:45.634Z,86.84
2023-03-31T23:02:49.512Z,86.71
2023-03-31T23:07:53.595Z,86.61
2023-03-31T23:12:58.031Z,86.52
2023-03-31T23:18:01.846Z,86.58
2023-03-31T23:23:05.745Z,86.62
2023-03-31T23:28:09.598Z,86.72
2023-03-31T23:33:13.458Z,86.57
2023-03-31T23:38:17.629Z,86.74
2023-03-31T23:43:21.555Z,86.82
2023-03-31T23:48:25.471Z,86.74
2023-03-31T23:53:29.722Z,86.68
2023-03-31T23:58:33.925Z,86.75
